createdAt,value
2023-05-07T00:01:31.092Z,98297.25
2023-05-07T00:04:18.879Z,98288.41
2023-05-07T00:07:06.774Z,98287.09
2023-05-07T00:09:54.734Z,98291.78
2023-05-07T00:12:44.207Z,98286.97
2023-05-07T00:15:32.227Z,98292.66
2023-05-07T00:18:22.113Z,98293.63
2023-05-07T00:21:09.994Z,98290.94
2023-05-07T00:23:57.953Z,98296.28
2023-05-07T00:26:45.833Z,98293.63
2023-05-07T00:29:35.172Z,98287.63
2023-05-07T00:32:22.986Z,98295.47
2023-05-07T00:35:11.512Z,98295.63
2023-05-07T00:37:59.882Z,98298.47
2023-05-07T00:40:47.920Z,98295.97
2023-05-07T00:43:35.908Z,98297.78
2023-05-07T00:46:25.783Z,98289.94
2023-05-07T00:49:13.694Z,98298.28
2023-05-07T00:52:01.659Z,98287.63
2023-05-07T00:54:50.389Z,98290.63
2023-05-07T00:57:39.372Z,98287.31
2023-05-07T01:00:27.901Z,98290.97
2023-05-07T01:03:17.560Z,98275.31
2023-05-07T01:06:10.197Z,98277.31
2023-05-07T01:08:58.663Z,98273.13
2023-05-07T01:11:46.903Z,98271.50
2023-05-07T01:14:35.079Z,98274.16
2023-05-07T01:17:23.091Z,98279.81
2023-05-07T01:20:13.911Z,98276.53
2023-05-07T01:23:05.355Z,98276.69
2023-05-07T01:25:56.884Z,98290.84
2023-05-07T01:28:44.739Z,98291.00
2023-05-07T01:31:34.102Z,98279.00
2023-05-07T01:34:24.750Z,98276.50
2023-05-07T01:37:12.683Z,98281.34
2023-05-07T01:40:03.046Z,98271.03
2023-05-07T01:42:50.947Z,98267.69
2023-05-07T01:45:39.256Z,98274.38
2023-05-07T01:48:28.043Z,98274.72
2023-05-07T01:51:15.919Z,98275.69
2023-05-07T01:54:03.940Z,98269.03
2023-05-07T01:56:53.206Z,98263.03
2023-05-07T01:59:41.469Z,98275.72
2023-05-07T02:02:29.359Z,98277.53
2023-05-07T02:05:17.450Z,98278.72
2023-05-07T02:08:05.820Z,98269.06
2023-05-07T02:10:54.953Z,98268.56
2023-05-07T02:13:44.440Z,98274.06
2023-05-07T02:16:32.383Z,98272.41
2023-05-07T02:19:22.088Z,98278.53
2023-05-07T02:22:10.165Z,98267.22
2023-05-07T02:24:57.901Z,98262.06
2023-05-07T02:27:45.942Z,98274.56
2023-05-07T02:30:35.209Z,98270.41
2023-05-07T02:33:22.843Z,98275.91
2023-05-07T02:36:11.683Z,98277.06
2023-05-07T02:39:01.813Z,98268.41
2023-05-07T02:41:50.030Z,98276.72
2023-05-07T02:44:38.069Z,98274.38
2023-05-07T02:47:29.579Z,98271.03
2023-05-07T02:50:17.458Z,98279.19
2023-05-07T02:53:05.434Z,98274.03
2023-05-07T02:55:53.423Z,98277.06
2023-05-07T02:58:41.432Z,98277.41
2023-05-07T03:01:29.466Z,98269.91
2023-05-07T03:04:18.903Z,98263.22
2023-05-07T03:07:07.016Z,98268.03
2023-05-07T03:09:55.133Z,98263.38
2023-05-07T03:12:42.921Z,98262.69
2023-05-07T03:15:30.930Z,98270.19
2023-05-07T03:18:19.189Z,98259.19
2023-05-07T03:21:08.519Z,98267.66
2023-05-07T03:23:56.354Z,98260.00
2023-05-07T03:26:44.738Z,98250.66
2023-05-07T03:29:32.883Z,98257.31
2023-05-07T03:32:20.992Z,98254.44
2023-05-07T03:35:09.200Z,98253.97
2023-05-07T03:37:58.671Z,98260.59
2023-05-07T03:40:46.532Z,98252.28
2023-05-07T03:43:34.425Z,98261.59
2023-05-07T03:46:22.266Z,98264.88
2023-05-07T03:49:10.058Z,98263.84
2023-05-07T03:51:58.228Z,98271.47
2023-05-07T03:54:47.417Z,98280.94
2023-05-07T03:57:35.529Z,98287.38
2023-05-07T04:00:23.800Z,98294.72
2023-05-07T04:03:12.110Z,98304.66
2023-05-07T04:06:00.016Z,98308.50
2023-05-07T04:08:47.971Z,98312.31
2023-05-07T04:11:37.892Z,98312.63
2023-05-07T04:14:25.524Z,98321.72
2023-05-07T04:17:13.334Z,98323.72
2023-05-07T04:20:01.113Z,98328.50
2023-05-07T04:22:50.903Z,98332.19
2023-05-07T04:25:38.829Z,98335.81
2023-05-07T04:28:28.240Z,98336.88
2023-05-07T04:31:16.375Z,98339.69
2023-05-07T04:34:04.094Z,98335.19
2023-05-07T04:36:52.063Z,98331.56
2023-05-07T04:39:40.038Z,98338.53
2023-05-07T04:42:27.987Z,98330.97
2023-05-07T04:45:17.554Z,98344.56
2023-05-07T04:48:05.775Z,98338.94
2023-05-07T04:50:53.980Z,98338.31
2023-05-07T04:53:42.433Z,98357.69
2023-05-07T04:56:31.167Z,98360.91
2023-05-07T04:59:19.219Z,98362.94
2023-05-07T05:02:08.565Z,98359.53
2023-05-07T05:04:56.526Z,98358.88
2023-05-07T05:07:44.567Z,98351.94
2023-05-07T05:10:32.563Z,98355.63
2023-05-07T05:13:20.423Z,98366.50
2023-05-07T05:16:08.777Z,98368.66
2023-05-07T05:18:57.681Z,98372.34
2023-05-07T05:21:45.619Z,98371.38
2023-05-07T05:24:33.411Z,98372.69
2023-05-07T05:27:20.967Z,98365.34
2023-05-07T05:30:10.166Z,98364.84
2023-05-07T05:32:58.325Z,98375.00
2023-05-07T05:35:47.799Z,98370.28
2023-05-07T05:38:35.608Z,98361.44
2023-05-07T05:41:23.547Z,98362.06
2023-05-07T05:44:11.333Z,98369.22
2023-05-07T05:47:00.300Z,98371.31
2023-05-07T05:49:48.116Z,98363.28
2023-05-07T05:52:37.508Z,98357.53
2023-05-07T05:55:25.711Z,98363.66
2023-05-07T05:58:13.605Z,98360.25
2023-05-07T06:01:03.583Z,98346.63
2023-05-07T06:03:51.431Z,98351.44
2023-05-07T06:06:39.470Z,98351.69
2023-05-07T06:09:28.847Z,98346.91
2023-05-07T06:12:16.859Z,98355.16
2023-05-07T06:15:05.501Z,98347.72
2023-05-07T06:17:53.208Z,98339.88
2023-05-07T06:20:41.233Z,98336.13
2023-05-07T06:23:29.782Z,98342.03
2023-05-07T06:26:19.073Z,98332.53
2023-05-07T06:29:07.112Z,98340.56
2023-05-07T06:31:55.171Z,98344.69
2023-05-07T06:34:43.830Z,98357.22
2023-05-07T06:37:31.845Z,98356.75
2023-05-07T06:40:19.997Z,98361.34
2023-05-07T06:43:09.278Z,98359.41
2023-05-07T06:45:57.356Z,98360.00
2023-05-07T06:48:45.608Z,98357.66
2023-05-07T06:51:33.575Z,98359.88
2023-05-07T06:54:21.472Z,98365.81
2023-05-07T06:57:09.389Z,98368.88
2023-05-07T06:59:58.649Z,98365.91
2023-05-07T07:02:46.510Z,98369.94
2023-05-07T07:05:34.446Z,98367.97
2023-05-07T07:08:23.136Z,98366.44
2023-05-07T07:11:11.814Z,98360.97
2023-05-07T07:13:59.934Z,98359.81
2023-05-07T07:16:49.274Z,98367.47
2023-05-07T07:19:37.471Z,98362.63
2023-05-07T07:22:27.619Z,98366.84
2023-05-07T07:25:15.562Z,98354.13
2023-05-07T07:28:05.309Z,98355.84
2023-05-07T07:30:53.418Z,98347.63
2023-05-07T07:33:42.639Z,98342.72
2023-05-07T07:36:38.948Z,98346.47
2023-05-07T07:39:33.958Z,98345.25
2023-05-07T07:42:21.814Z,98357.50
2023-05-07T07:45:10.609Z,98356.03
2023-05-07T07:47:58.299Z,98357.28
2023-05-07T07:50:50.375Z,98353.75
2023-05-07T07:53:38.030Z,98352.69
2023-05-07T07:56:26.133Z,98351.84
2023-05-07T07:59:14.862Z,98346.41
2023-05-07T08:02:02.726Z,98346.78
2023-05-07T08:04:50.629Z,98334.28
2023-05-07T08:07:40.092Z,98335.47
2023-05-07T08:10:28.325Z,98339.16
2023-05-07T08:13:16.228Z,98341.13
2023-05-07T08:16:04.561Z,98338.19
2023-05-07T08:18:52.274Z,98341.53
2023-05-07T08:21:42.070Z,98346.75
2023-05-07T08:24:31.359Z,98349.13
2023-05-07T08:27:19.063Z,98344.97
2023-05-07T08:30:08.093Z,98350.69
2023-05-07T08:32:56.461Z,98350.75
2023-05-07T08:35:44.547Z,98348.69
2023-05-07T08:38:32.223Z,98354.16
2023-05-07T08:41:21.899Z,98363.41
2023-05-07T08:44:15.512Z,98353.94
2023-05-07T08:47:04.420Z,98349.44
2023-05-07T08:49:53.288Z,98357.59
2023-05-07T08:52:42.457Z,98357.75
2023-05-07T08:55:31.792Z,98351.72
2023-05-07T08:58:21.245Z,98347.34
2023-05-07T09:01:11.742Z,98342.41
2023-05-07T09:04:00.508Z,98338.84
2023-05-07T09:07:36.593Z,98335.94
2023-05-07T09:10:24.906Z,98343.72
2023-05-07T09:13:15.892Z,98332.44
2023-05-07T09:16:14.983Z,98329.56
2023-05-07T09:19:03.117Z,98331.47
2023-05-07T09:21:51.724Z,98329.97
2023-05-07T09:24:40.659Z,98332.22
2023-05-07T09:27:29.133Z,98324.13
2023-05-07T09:30:17.184Z,98315.97
2023-05-07T09:33:07.550Z,98312.91
2023-05-07T09:35:55.954Z,98310.66
2023-05-07T09:38:44.650Z,98304.75
2023-05-07T09:41:34.773Z,98317.38
2023-05-07T09:44:23.429Z,98304.31
2023-05-07T09:47:12.369Z,98305.63
2023-05-07T09:50:08.522Z,98301.56
2023-05-07T09:52:57.727Z,98308.97
2023-05-07T09:55:47.354Z,98305.19
2023-05-07T09:58:40.186Z,98311.06
2023-05-07T10:01:29.098Z,98302.81
2023-05-07T10:04:18.228Z,98289.66
2023-05-07T10:07:09.237Z,98289.22
2023-05-07T10:10:03.011Z,98295.56
2023-05-07T10:12:52.479Z,98293.25
2023-05-07T10:15:40.434Z,98283.38
2023-05-07T10:18:31.005Z,98285.63
2023-05-07T10:21:20.479Z,98292.69
2023-05-07T10:24:15.667Z,98286.69
2023-05-07T10:27:06.529Z,98287.75
2023-05-07T10:30:07.706Z,98282.81
2023-05-07T10:32:59.045Z,98283.88
2023-05-07T10:35:49.156Z,98282.06
2023-05-07T10:38:36.815Z,98280.84
2023-05-07T10:41:26.042Z,98286.56
2023-05-07T10:44:14.084Z,98283.84
2023-05-07T10:47:10.634Z,98278.63
2023-05-07T10:50:32.111Z,98278.75
2023-05-07T10:53:30.519Z,98268.16
2023-05-07T10:56:29.918Z,98270.44
2023-05-07T10:59:42.714Z,98273.28
2023-05-07T11:03:03.543Z,98258.06
2023-05-07T11:06:12.220Z,98251.34
2023-05-07T11:09:00.750Z,98253.53
2023-05-07T11:11:52.223Z,98254.91
2023-05-07T11:14:46.767Z,98245.09
2023-05-07T11:17:37.388Z,98244.59
2023-05-07T11:20:52.065Z,98241.66
2023-05-07T11:24:00.036Z,98242.94
2023-05-07T11:26:51.131Z,98235.44
2023-05-07T11:29:39.242Z,98236.50
2023-05-07T11:32:30.849Z,98232.44
2023-05-07T11:35:19.314Z,98229.13
2023-05-07T11:38:07.573Z,98223.13
2023-05-07T11:40:57.126Z,98228.19
2023-05-07T11:44:01.637Z,98230.88
2023-05-07T11:46:53.520Z,98225.13
2023-05-07T11:49:41.701Z,98224.13
2023-05-07T11:52:29.486Z,98225.44
2023-05-07T11:55:21.266Z,98223.63
2023-05-07T11:58:10.709Z,98225.75
2023-05-07T12:01:00.165Z,98231.50
2023-05-07T12:03:48.778Z,98238.44
2023-05-07T12:06:39.949Z,98223.19
2023-05-07T12:09:27.873Z,98224.56
2023-05-07T12:12:16.587Z,98230.59
2023-05-07T12:15:04.789Z,98222.84
2023-05-07T12:17:54.113Z,98231.44
2023-05-07T12:20:43.049Z,98226.16
2023-05-07T12:23:31.350Z,98216.88
2023-05-07T12:26:21.707Z,98228.63
2023-05-07T12:29:09.826Z,98227.63
2023-05-07T12:31:57.741Z,98216.00
2023-05-07T12:34:47.937Z,98236.59
2023-05-07T12:37:37.538Z,98227.41
2023-05-07T12:40:25.437Z,98233.22
2023-05-07T12:43:19.170Z,98227.56
2023-05-07T12:46:08.315Z,98231.81
2023-05-07T12:48:56.731Z,98226.13
2023-05-07T12:51:46.274Z,98230.28
2023-05-07T12:54:35.429Z,98224.50
2023-05-07T12:57:23.489Z,98224.69
2023-05-07T13:00:12.641Z,98214.44
2023-05-07T13:03:01.553Z,98206.88
2023-05-07T13:05:49.606Z,98209.81
2023-05-07T13:08:41.411Z,98208.19
2023-05-07T13:11:29.159Z,98206.38
2023-05-07T13:14:17.057Z,98200.50
2023-05-07T13:17:04.917Z,98189.25
2023-05-07T13:19:52.884Z,98205.25
2023-05-07T13:22:41.288Z,98203.88
2023-05-07T13:25:30.697Z,98203.28
2023-05-07T13:28:18.918Z,98192.50
2023-05-07T13:31:06.599Z,98196.97
2023-05-07T13:33:54.767Z,98193.69
2023-05-07T13:36:43.031Z,98192.78
2023-05-07T13:39:30.841Z,98191.31
2023-05-07T13:42:20.595Z,98189.16
2023-05-07T13:45:09.633Z,98186.19
2023-05-07T13:47:59.404Z,98178.28
2023-05-07T13:50:47.414Z,98177.19
2023-05-07T13:53:35.010Z,98180.25
2023-05-07T13:56:24.081Z,98182.47
2023-05-07T13:59:15.302Z,98180.84
2023-05-07T14:02:03.307Z,98178.41
2023-05-07T14:04:51.265Z,98184.09
2023-05-07T14:07:39.368Z,98182.66
2023-05-07T14:10:27.562Z,98187.03
2023-05-07T14:13:15.825Z,98185.13
2023-05-07T14:16:06.489Z,98185.69
2023-05-07T14:18:57.828Z,98178.00
2023-05-07T14:21:46.352Z,98165.34
2023-05-07T14:24:38.664Z,98160.03
2023-05-07T14:27:28.908Z,98166.53
2023-05-07T14:30:21.293Z,98168.66
2023-05-07T14:33:10.274Z,98166.69
2023-05-07T14:35:58.165Z,98165.44
2023-05-07T14:38:46.504Z,98171.63
2023-05-07T14:41:34.389Z,98164.56
2023-05-07T14:44:22.410Z,98172.25
2023-05-07T14:47:10.662Z,98174.25
2023-05-07T14:50:02.105Z,98175.09
2023-05-07T14:52:50.403Z,98172.09
2023-05-07T14:55:38.357Z,98182.06
2023-05-07T14:58:26.375Z,98169.94
2023-05-07T15:01:14.671Z,98171.41
2023-05-07T15:04:03.292Z,98184.00
2023-05-07T15:06:53.203Z,98194.06
2023-05-07T15:09:41.004Z,98186.22
2023-05-07T15:12:29.169Z,98187.03
2023-05-07T15:15:17.398Z,98188.44
2023-05-07T15:18:07.975Z,98184.88
2023-05-07T15:20:57.926Z,98185.22
2023-05-07T15:23:54.166Z,98181.22
2023-05-07T15:26:41.856Z,98192.34
2023-05-07T15:29:30.030Z,98194.88
2023-05-07T15:32:17.908Z,98192.25
2023-05-07T15:35:06.769Z,98187.16
2023-05-07T15:37:54.668Z,98185.59
2023-05-07T15:40:43.963Z,98188.06
2023-05-07T15:43:32.272Z,98186.28
2023-05-07T15:46:21.507Z,98175.88
2023-05-07T15:49:09.984Z,98184.94
2023-05-07T15:51:58.116Z,98184.19
2023-05-07T15:54:45.912Z,98183.69
2023-05-07T15:57:35.135Z,98185.13
2023-05-07T16:00:23.477Z,98177.16
2023-05-07T16:03:11.683Z,98179.38
2023-05-07T16:06:00.861Z,98185.94
2023-05-07T16:08:49.038Z,98181.84
2023-05-07T16:11:36.719Z,98188.66
2023-05-07T16:14:26.180Z,98190.81
2023-05-07T16:17:13.970Z,98197.88
2023-05-07T16:20:02.189Z,98196.25
2023-05-07T16:22:49.840Z,98199.00
2023-05-07T16:25:38.082Z,98200.59
2023-05-07T16:28:27.782Z,98202.72
2023-05-07T16:31:17.262Z,98199.69
2023-05-07T16:34:05.282Z,98203.44
2023-05-07T16:36:53.275Z,98209.03
2023-05-07T16:39:41.306Z,98206.22
2023-05-07T16:42:29.695Z,98215.97
2023-05-07T16:45:18.701Z,98222.38
2023-05-07T16:48:08.723Z,98226.59
2023-05-07T16:50:56.673Z,98229.44
2023-05-07T16:53:44.707Z,98229.03
2023-05-07T16:56:32.756Z,98228.41
2023-05-07T16:59:20.929Z,98226.34
2023-05-07T17:02:09.080Z,98223.78
2023-05-07T17:04:58.397Z,98224.34
2023-05-07T17:07:46.842Z,98234.53
2023-05-07T17:10:35.053Z,98238.19
2023-05-07T17:13:24.683Z,98239.38
2023-05-07T17:16:12.980Z,98241.06
2023-05-07T17:19:01.270Z,98248.66
2023-05-07T17:21:50.670Z,98248.47
2023-05-07T17:24:40.876Z,98257.50
2023-05-07T17:27:28.853Z,98252.09
2023-05-07T17:30:16.890Z,98256.81
2023-05-07T17:33:19.441Z,98260.50
2023-05-07T17:36:08.711Z,98262.06
2023-05-07T17:39:01.484Z,98270.72
2023-05-07T17:41:49.712Z,98262.94
2023-05-07T17:44:37.726Z,98268.81
2023-05-07T17:47:28.241Z,98279.63
2023-05-07T17:50:16.613Z,98265.81
2023-05-07T17:53:05.883Z,98281.09
2023-05-07T17:55:55.695Z,98288.03
2023-05-07T17:58:58.173Z,98286.63
2023-05-07T18:01:46.962Z,98289.94
2023-05-07T18:04:35.101Z,98291.81
2023-05-07T18:07:23.035Z,98297.97
2023-05-07T18:10:12.300Z,98295.88
2023-05-07T18:13:01.684Z,98305.63
2023-05-07T18:15:49.809Z,98304.97
2023-05-07T18:18:37.873Z,98308.84
2023-05-07T18:21:25.648Z,98322.19
2023-05-07T18:24:13.906Z,98324.78
2023-05-07T18:27:01.958Z,98337.72
2023-05-07T18:29:51.129Z,98332.34
2023-05-07T18:32:39.050Z,98345.56
2023-05-07T18:35:26.973Z,98334.88
2023-05-07T18:38:14.940Z,98336.44
2023-05-07T18:41:04.300Z,98339.22
2023-05-07T18:43:52.183Z,98345.69
2023-05-07T18:46:41.906Z,98352.66
2023-05-07T18:49:29.749Z,98351.81
2023-05-07T18:52:21.196Z,98354.41
2023-05-07T18:55:11.107Z,98363.03
2023-05-07T18:57:59.125Z,98373.03
2023-05-07T19:00:47.429Z,98372.56
2023-05-07T19:03:37.109Z,98381.72
2023-05-07T19:06:25.798Z,98381.13
2023-05-07T19:09:14.509Z,98389.00
2023-05-07T19:12:02.355Z,98391.53
2023-05-07T19:14:50.262Z,98391.28
2023-05-07T19:17:38.467Z,98398.34
2023-05-07T19:20:28.150Z,98399.56
2023-05-07T19:23:15.975Z,98401.19
2023-05-07T19:26:04.154Z,98412.75
2023-05-07T19:29:06.686Z,98413.22
2023-05-07T19:32:00.602Z,98418.13
2023-05-07T19:34:48.652Z,98419.84
2023-05-07T19:37:37.849Z,98421.50
2023-05-07T19:40:26.181Z,98431.44
2023-05-07T19:43:14.110Z,98439.75
2023-05-07T19:46:02.185Z,98441.75
2023-05-07T19:48:50.590Z,98451.69
2023-05-07T19:51:38.439Z,98450.31
2023-05-07T19:54:27.898Z,98457.41
2023-05-07T19:57:17.666Z,98455.72
2023-05-07T20:00:06.856Z,98462.78
2023-05-07T20:02:54.698Z,98467.28
2023-05-07T20:05:42.554Z,98474.91
2023-05-07T20:08:31.116Z,98483.56
2023-05-07T20:11:21.604Z,98481.44
2023-05-07T20:14:10.078Z,98483.28
2023-05-07T20:16:57.842Z,98492.78
2023-05-07T20:19:45.832Z,98490.06
2023-05-07T20:22:34.037Z,98496.44
2023-05-07T20:25:22.272Z,98496.19
2023-05-07T20:28:11.951Z,98501.72
2023-05-07T20:30:59.844Z,98497.66
2023-05-07T20:33:47.651Z,98510.47
2023-05-07T20:36:36.003Z,98504.06
2023-05-07T20:39:29.085Z,98517.97
2023-05-07T20:42:16.945Z,98514.78
2023-05-07T20:45:06.831Z,98513.25
2023-05-07T20:47:54.835Z,98520.69
2023-05-07T20:50:42.845Z,98523.13
2023-05-07T20:53:31.850Z,98527.50
2023-05-07T20:56:20.028Z,98538.81
2023-05-07T20:59:07.996Z,98542.28
2023-05-07T21:01:57.419Z,98544.03
2023-05-07T21:04:45.954Z,98552.53
2023-05-07T21:07:33.853Z,98553.50
2023-05-07T21:10:21.915Z,98560.03
2023-05-07T21:13:10.023Z,98564.97
2023-05-07T21:15:58.182Z,98563.25
2023-05-07T21:18:47.713Z,98564.09
2023-05-07T21:21:37.974Z,98571.41
2023-05-07T21:24:26.095Z,98572.16
2023-05-07T21:27:14.075Z,98571.41
2023-05-07T21:30:04.662Z,98568.00
2023-05-07T21:32:55.434Z,98571.97
2023-05-07T21:35:44.815Z,98576.03
2023-05-07T21:38:32.535Z,98576.47
2023-05-07T21:41:20.885Z,98579.69
2023-05-07T21:44:08.957Z,98589.03
2023-05-07T21:46:57.036Z,98586.66
2023-05-07T21:49:45.041Z,98593.03
2023-05-07T21:52:34.373Z,98588.78
2023-05-07T21:55:22.485Z,98600.09
2023-05-07T21:58:10.300Z,98600.19
2023-05-07T22:00:58.530Z,98597.56
2023-05-07T22:03:46.980Z,98602.47
2023-05-07T22:06:34.619Z,98598.13
2023-05-07T22:09:23.897Z,98593.47
2023-05-07T22:12:11.730Z,98601.88
2023-05-07T22:14:59.717Z,98608.13
2023-05-07T22:17:47.819Z,98617.38
2023-05-07T22:20:38.926Z,98613.94
2023-05-07T22:23:26.947Z,98606.47
2023-05-07T22:26:16.643Z,98614.00
2023-05-07T22:29:04.744Z,98617.69
2023-05-07T22:31:52.757Z,98621.72
2023-05-07T22:34:40.549Z,98617.72
2023-05-07T22:37:28.534Z,98629.50
2023-05-07T22:40:16.820Z,98626.19
2023-05-07T22:43:08.679Z,98624.56
2023-05-07T22:46:00.997Z,98622.94
2023-05-07T22:48:48.764Z,98623.97
2023-05-07T22:51:37.078Z,98625.81
2023-05-07T22:54:25.655Z,98631.38
2023-05-07T22:57:13.398Z,98640.09
2023-05-07T23:00:03.309Z,98636.06
2023-05-07T23:02:51.522Z,98639.94
2023-05-07T23:05:40.453Z,98640.44
2023-05-07T23:08:27.993Z,98638.13
2023-05-07T23:11:15.941Z,98635.16
2023-05-07T23:14:04.060Z,98632.50
2023-05-07T23:16:55.951Z,98632.03
2023-05-07T23:19:45.227Z,98638.06
2023-05-07T23:22:33.281Z,98638.56
2023-05-07T23:25:21.497Z,98641.59
2023-05-07T23:28:09.253Z,98635.56
2023-05-07T23:31:00.178Z,98644.94
2023-05-07T23:33:49.632Z,98643.94
2023-05-07T23:36:40.014Z,98650.63
2023-05-07T23:39:27.900Z,98648.66
2023-05-07T23:42:16.866Z,98642.97
2023-05-07T23:45:05.494Z,98650.31
2023-05-07T23:47:53.342Z,98645.31
2023-05-07T23:50:42.710Z,98650.63
2023-05-07T23:53:30.721Z,98653.66
2023-05-07T23:56:18.804Z,98644.97
2023-05-07T23:59:06.440Z,98648.97
